sensor_id;sensor_type;location;lat;lon;timestamp;pressure;altitude;pressure_sealevel;temperature;humidity
14253;BME280;7210;51.502;10.722;2022-07-10T00:00:59;100379.13;;;13.41;78.89
14253;BME280;7210;51.502;10.722;2022-07-10T00:03:26;100375.78;;;13.45;78.90
14253;BME280;7210;51.502;10.722;2022-07-10T00:05:53;100384.00;;;13.55;78.82
14253;BME280;7210;51.502;10.722;2022-07-10T00:08:20;100374.94;;;13.63;78.53
14253;BME280;7210;51.502;10.722;2022-07-10T00:10:47;100373.31;;;13.62;78.32
14253;BME280;7210;51.502;10.722;2022-07-10T00:13:16;100375.88;;;13.68;78.29
14253;BME280;7210;51.502;10.722;2022-07-10T00:15:44;100371.84;;;13.77;78.28
14253;BME280;7210;51.502;10.722;2022-07-10T00:18:11;100376.59;;;13.87;78.24
14253;BME280;7210;51.502;10.722;2022-07-10T00:20:38;100380.44;;;13.91;77.85
14253;BME280;7210;51.502;10.722;2022-07-10T00:23:05;100372.00;;;13.94;77.80
14253;BME280;7210;51.502;10.722;2022-07-10T00:25:33;100366.19;;;13.97;77.76
14253;BME280;7210;51.502;10.722;2022-07-10T00:28:00;100371.53;;;13.97;77.89
14253;BME280;7210;51.502;10.722;2022-07-10T00:30:29;100372.34;;;13.97;77.47
14253;BME280;7210;51.502;10.722;2022-07-10T00:32:56;100368.28;;;13.95;77.80
14253;BME280;7210;51.502;10.722;2022-07-10T00:35:25;100357.41;;;13.85;78.05
14253;BME280;7210;51.502;10.722;2022-07-10T00:37:52;100362.13;;;13.83;78.43
14253;BME280;7210;51.502;10.722;2022-07-10T00:40:20;100362.94;;;13.83;78.22
14253;BME280;7210;51.502;10.722;2022-07-10T00:42:47;100373.38;;;13.85;78.75
14253;BME280;7210;51.502;10.722;2022-07-10T00:45:14;100366.78;;;13.87;78.74
14253;BME280;7210;51.502;10.722;2022-07-10T00:47:43;100368.97;;;13.90;78.90
14253;BME280;7210;51.502;10.722;2022-07-10T00:50:10;100371.84;;;13.89;78.89
14253;BME280;7210;51.502;10.722;2022-07-10T00:52:38;100367.59;;;13.88;79.44
14253;BME280;7210;51.502;10.722;2022-07-10T00:55:08;100362.47;;;13.86;79.43
14253;BME280;7210;51.502;10.722;2022-07-10T00:57:37;100365.06;;;13.93;79.41
14253;BME280;7210;51.502;10.722;2022-07-10T01:00:07;100371.09;;;14.00;79.34
14253;BME280;7210;51.502;10.722;2022-07-10T01:02:36;100356.75;;;14.01;78.96
14253;BME280;7210;51.502;10.722;2022-07-10T01:05:05;100347.03;;;13.95;78.89
14253;BME280;7210;51.502;10.722;2022-07-10T01:07:32;100335.69;;;13.88;79.00
14253;BME280;7210;51.502;10.722;2022-07-10T01:09:59;100336.72;;;13.75;79.32
14253;BME280;7210;51.502;10.722;2022-07-10T01:12:33;100327.56;;;13.60;78.87
14253;BME280;7210;51.502;10.722;2022-07-10T01:15:04;100332.06;;;13.59;78.79
14253;BME280;7210;51.502;10.722;2022-07-10T01:17:32;100344.41;;;13.54;79.10
14253;BME280;7210;51.502;10.722;2022-07-10T01:20:06;100342.19;;;13.51;79.22
14253;BME280;7210;51.502;10.722;2022-07-10T01:22:36;100347.50;;;13.51;79.44
14253;BME280;7210;51.502;10.722;2022-07-10T01:25:05;100334.81;;;13.53;79.25
14253;BME280;7210;51.502;10.722;2022-07-10T01:27:33;100330.88;;;13.55;79.34
14253;BME280;7210;51.502;10.722;2022-07-10T01:30:00;100328.09;;;13.50;79.16
14253;BME280;7210;51.502;10.722;2022-07-10T01:32:36;100325.09;;;13.47;79.18
14253;BME280;7210;51.502;10.722;2022-07-10T01:35:04;100307.16;;;13.31;79.50
14253;BME280;7210;51.502;10.722;2022-07-10T01:37:32;100311.88;;;13.29;79.78
14253;BME280;7210;51.502;10.722;2022-07-10T01:40:01;100310.56;;;13.20;80.32
14253;BME280;7210;51.502;10.722;2022-07-10T01:42:28;100306.81;;;13.09;80.46
14253;BME280;7210;51.502;10.722;2022-07-10T01:44:56;100286.84;;;12.89;80.81
14253;BME280;7210;51.502;10.722;2022-07-10T01:47:23;100309.13;;;12.88;81.07
14253;BME280;7210;51.502;10.722;2022-07-10T01:49:52;100314.75;;;12.80;81.54
14253;BME280;7210;51.502;10.722;2022-07-10T01:52:19;100315.88;;;12.72;81.83
14253;BME280;7210;51.502;10.722;2022-07-10T01:54:47;100322.06;;;12.66;82.25
14253;BME280;7210;51.502;10.722;2022-07-10T01:57:16;100331.72;;;12.61;82.37
14253;BME280;7210;51.502;10.722;2022-07-10T01:59:44;100327.50;;;12.53;82.54
14253;BME280;7210;51.502;10.722;2022-07-10T02:02:11;100331.69;;;12.43;83.01
14253;BME280;7210;51.502;10.722;2022-07-10T02:04:38;100336.72;;;12.33;83.51
14253;BME280;7210;51.502;10.722;2022-07-10T02:07:08;100329.03;;;12.25;84.00
14253;BME280;7210;51.502;10.722;2022-07-10T02:09:36;100334.94;;;12.27;84.50
14253;BME280;7210;51.502;10.722;2022-07-10T02:12:06;100330.53;;;12.21;84.73
14253;BME280;7210;51.502;10.722;2022-07-10T02:14:34;100335.81;;;12.21;85.13
14253;BME280;7210;51.502;10.722;2022-07-10T02:17:03;100342.75;;;12.22;85.18
14253;BME280;7210;51.502;10.722;2022-07-10T02:19:30;100332.94;;;12.22;85.18
14253;BME280;7210;51.502;10.722;2022-07-10T02:21:58;100337.44;;;12.22;85.49
14253;BME280;7210;51.502;10.722;2022-07-10T02:24:25;100336.53;;;12.28;85.67
14253;BME280;7210;51.502;10.722;2022-07-10T02:26:53;100332.06;;;12.28;85.67
14253;BME280;7210;51.502;10.722;2022-07-10T02:29:22;100326.09;;;12.33;85.69
14253;BME280;7210;51.502;10.722;2022-07-10T02:31:52;100317.28;;;12.39;85.75
14253;BME280;7210;51.502;10.722;2022-07-10T02:34:19;100312.34;;;12.42;85.80
14253;BME280;7210;51.502;10.722;2022-07-10T02:36:46;100321.63;;;12.51;85.47
14253;BME280;7210;51.502;10.722;2022-07-10T02:39:14;100311.53;;;12.60;84.97
14253;BME280;7210;51.502;10.722;2022-07-10T02:41:41;100308.88;;;12.60;84.72
14253;BME280;7210;51.502;10.722;2022-07-10T02:44:08;100306.81;;;12.62;84.68
14253;BME280;7210;51.502;10.722;2022-07-10T02:46:35;100307.38;;;12.64;84.24
14253;BME280;7210;51.502;10.722;2022-07-10T02:49:05;100299.88;;;12.61;84.33
14253;BME280;7210;51.502;10.722;2022-07-10T02:51:32;100308.88;;;12.60;84.51
14253;BME280;7210;51.502;10.722;2022-07-10T02:53:59;100315.94;;;12.66;84.51
14253;BME280;7210;51.502;10.722;2022-07-10T02:56:27;100314.00;;;12.73;84.38
14253;BME280;7210;51.502;10.722;2022-07-10T02:58:54;100304.84;;;12.87;83.80
14253;BME280;7210;51.502;10.722;2022-07-10T03:01:21;100309.56;;;13.03;83.71
14253;BME280;7210;51.502;10.722;2022-07-10T03:03:48;100307.88;;;13.08;83.21
14253;BME280;7210;51.502;10.722;2022-07-10T03:06:22;100302.47;;;13.15;82.70
14253;BME280;7210;51.502;10.722;2022-07-10T03:08:50;100299.34;;;13.18;82.64
14253;BME280;7210;51.502;10.722;2022-07-10T03:11:17;100284.94;;;13.14;82.23
14253;BME280;7210;51.502;10.722;2022-07-10T03:13:44;100291.75;;;13.21;82.32
14253;BME280;7210;51.502;10.722;2022-07-10T03:16:12;100296.59;;;13.24;82.49
14253;BME280;7210;51.502;10.722;2022-07-10T03:18:39;100298.25;;;13.25;82.53
14253;BME280;7210;51.502;10.722;2022-07-10T03:21:06;100295.00;;;13.23;82.44
14253;BME280;7210;51.502;10.722;2022-07-10T03:23:35;100292.56;;;13.22;82.49
14253;BME280;7210;51.502;10.722;2022-07-10T03:26:02;100295.22;;;13.22;82.86
14253;BME280;7210;51.502;10.722;2022-07-10T03:28:30;100299.34;;;13.18;82.92
14253;BME280;7210;51.502;10.722;2022-07-10T03:31:03;100295.66;;;13.19;83.13
14253;BME280;7210;51.502;10.722;2022-07-10T03:33:30;100289.91;;;13.22;83.14
14253;BME280;7210;51.502;10.722;2022-07-10T03:35:57;100284.47;;;13.17;83.20
14253;BME280;7210;51.502;10.722;2022-07-10T03:38:24;100279.16;;;13.17;83.17
14253;BME280;7210;51.502;10.722;2022-07-10T03:40:53;100281.97;;;13.22;83.23
14253;BME280;7210;51.502;10.722;2022-07-10T03:43:20;100284.38;;;13.23;83.27
14253;BME280;7210;51.502;10.722;2022-07-10T03:45:47;100285.19;;;13.24;83.39
14253;BME280;7210;51.502;10.722;2022-07-10T03:48:14;100288.41;;;13.26;83.45
14253;BME280;7210;51.502;10.722;2022-07-10T03:50:42;100282.31;;;13.25;83.32
14253;BME280;7210;51.502;10.722;2022-07-10T03:53:09;100291.06;;;13.26;83.65
14253;BME280;7210;51.502;10.722;2022-07-10T03:55:36;100292.94;;;13.25;84.08
14253;BME280;7210;51.502;10.722;2022-07-10T03:58:05;100283.69;;;13.28;83.91
14253;BME280;7210;51.502;10.722;2022-07-10T04:00:31;100289.00;;;13.28;83.92
14253;BME280;7210;51.502;10.722;2022-07-10T04:03:01;100285.75;;;13.26;83.81
14253;BME280;7210;51.502;10.722;2022-07-10T04:05:30;100288.19;;;13.27;84.17
14253;BME280;7210;51.502;10.722;2022-07-10T04:07:58;100294.91;;;13.30;84.52
14253;BME280;7210;51.502;10.722;2022-07-10T04:10:27;100292.81;;;13.32;84.05
14253;BME280;7210;51.502;10.722;2022-07-10T04:12:55;100284.28;;;13.30;84.39
14253;BME280;7210;51.502;10.722;2022-07-10T04:15:24;100285.69;;;13.44;84.35
14253;BME280;7210;51.502;10.722;2022-07-10T04:17:51;100287.00;;;13.53;83.76
14253;BME280;7210;51.502;10.722;2022-07-10T04:20:20;100281.22;;;13.56;83.58
14253;BME280;7210;51.502;10.722;2022-07-10T04:22:49;100275.09;;;13.67;83.33
14253;BME280;7210;51.502;10.722;2022-07-10T04:25:16;100269.34;;;13.70;82.67
14253;BME280;7210;51.502;10.722;2022-07-10T04:27:43;100283.75;;;13.74;82.37
14253;BME280;7210;51.502;10.722;2022-07-10T04:30:12;100261.47;;;13.75;82.11
14253;BME280;7210;51.502;10.722;2022-07-10T04:32:40;100271.66;;;13.78;81.48
14253;BME280;7210;51.502;10.722;2022-07-10T04:35:08;100269.44;;;13.75;81.15
14253;BME280;7210;51.502;10.722;2022-07-10T04:37:36;100270.13;;;13.70;81.16
14253;BME280;7210;51.502;10.722;2022-07-10T04:40:05;100285.97;;;13.77;81.41
14253;BME280;7210;51.502;10.722;2022-07-10T04:42:32;100286.22;;;13.87;81.58
14253;BME280;7210;51.502;10.722;2022-07-10T04:44:59;100280.91;;;13.87;81.35
14253;BME280;7210;51.502;10.722;2022-07-10T04:47:26;100285.66;;;13.96;81.28
14253;BME280;7210;51.502;10.722;2022-07-10T04:49:55;100282.72;;;13.98;81.18
14253;BME280;7210;51.502;10.722;2022-07-10T04:52:22;100281.81;;;14.04;81.33
14253;BME280;7210;51.502;10.722;2022-07-10T04:54:49;100281.38;;;14.07;81.13
14253;BME280;7210;51.502;10.722;2022-07-10T04:57:17;100284.16;;;14.23;80.77
14253;BME280;7210;51.502;10.722;2022-07-10T04:59:56;100279.72;;;14.29;80.59
14253;BME280;7210;51.502;10.722;2022-07-10T05:02:44;100280.91;;;14.33;80.39
14253;BME280;7210;51.502;10.722;2022-07-10T05:05:38;100274.31;;;14.35;80.45
14253;BME280;7210;51.502;10.722;2022-07-10T05:08:11;100266.00;;;14.32;80.16
14253;BME280;7210;51.502;10.722;2022-07-10T05:10:39;100278.13;;;14.28;80.07
14253;BME280;7210;51.502;10.722;2022-07-10T05:13:06;100275.13;;;14.24;79.98
14253;BME280;7210;51.502;10.722;2022-07-10T05:15:33;100281.38;;;14.30;80.40
14253;BME280;7210;51.502;10.722;2022-07-10T05:18:00;100279.97;;;14.39;80.18
14253;BME280;7210;51.502;10.722;2022-07-10T05:20:29;100274.63;;;14.50;79.80
14253;BME280;7210;51.502;10.722;2022-07-10T05:22:57;100278.66;;;14.53;79.61
14253;BME280;7210;51.502;10.722;2022-07-10T05:25:24;100267.44;;;14.51;79.36
14253;BME280;7210;51.502;10.722;2022-07-10T05:27:52;100277.41;;;14.44;79.37
14253;BME280;7210;51.502;10.722;2022-07-10T05:30:19;100276.13;;;14.46;79.94
14253;BME280;7210;51.502;10.722;2022-07-10T05:32:46;100276.94;;;14.47;79.86
14253;BME280;7210;51.502;10.722;2022-07-10T05:35:14;100274.16;;;14.53;79.84
14253;BME280;7210;51.502;10.722;2022-07-10T05:37:43;100284.66;;;14.60;79.60
14253;BME280;7210;51.502;10.722;2022-07-10T05:40:11;100277.28;;;14.50;79.62
14253;BME280;7210;51.502;10.722;2022-07-10T05:42:38;100281.56;;;14.51;80.28
14253;BME280;7210;51.502;10.722;2022-07-10T05:45:07;100280.38;;;14.59;80.28
14253;BME280;7210;51.502;10.722;2022-07-10T05:47:35;100281.66;;;14.56;80.21
14253;BME280;7210;51.502;10.722;2022-07-10T05:50:02;100283.88;;;14.48;80.45
14253;BME280;7210;51.502;10.722;2022-07-10T05:52:30;100281.59;;;14.40;80.52
14253;BME280;7210;51.502;10.722;2022-07-10T05:54:58;100283.53;;;14.44;81.11
14253;BME280;7210;51.502;10.722;2022-07-10T05:57:26;100288.03;;;14.44;81.39
14253;BME280;7210;51.502;10.722;2022-07-10T05:59:53;100281.94;;;14.43;81.36
14253;BME280;7210;51.502;10.722;2022-07-10T06:02:20;100296.16;;;14.49;81.90
14253;BME280;7210;51.502;10.722;2022-07-10T06:04:47;100291.88;;;14.48;81.82
14253;BME280;7210;51.502;10.722;2022-07-10T06:07:15;100294.88;;;14.51;82.21
14253;BME280;7210;51.502;10.722;2022-07-10T06:09:42;100300.53;;;14.55;82.05
14253;BME280;7210;51.502;10.722;2022-07-10T06:12:11;100302.69;;;14.69;82.33
14253;BME280;7210;51.502;10.722;2022-07-10T06:14:38;100302.81;;;14.74;82.10
14253;BME280;7210;51.502;10.722;2022-07-10T06:17:06;100313.19;;;14.76;82.07
14253;BME280;7210;51.502;10.722;2022-07-10T06:19:33;100311.16;;;14.66;82.06
14253;BME280;7210;51.502;10.722;2022-07-10T06:22:00;100312.91;;;14.61;82.79
14253;BME280;7210;51.502;10.722;2022-07-10T06:25:03;100328.22;;;14.19;85.25
14253;BME280;7210;51.502;10.722;2022-07-10T06:27:33;100337.56;;;13.99;87.13
14253;BME280;7210;51.502;10.722;2022-07-10T06:30:01;100345.28;;;13.89;89.27
14253;BME280;7210;51.502;10.722;2022-07-10T06:32:28;100346.06;;;13.78;90.64
14253;BME280;7210;51.502;10.722;2022-07-10T06:35:02;100348.25;;;13.69;91.91
14253;BME280;7210;51.502;10.722;2022-07-10T06:37:34;100347.88;;;13.66;92.98
14253;BME280;7210;51.502;10.722;2022-07-10T06:40:02;100348.00;;;13.59;93.99
14253;BME280;7210;51.502;10.722;2022-07-10T06:42:31;100358.53;;;13.66;95.02
14253;BME280;7210;51.502;10.722;2022-07-10T06:45:00;100356.00;;;13.71;94.73
14253;BME280;7210;51.502;10.722;2022-07-10T06:47:27;100354.16;;;13.83;94.99
14253;BME280;7210;51.502;10.722;2022-07-10T06:50:13;100349.00;;;13.99;94.31
14253;BME280;7210;51.502;10.722;2022-07-10T06:52:41;100350.28;;;14.20;93.58
14253;BME280;7210;51.502;10.722;2022-07-10T06:55:09;100350.06;;;14.33;93.12
14253;BME280;7210;51.502;10.722;2022-07-10T06:57:39;100353.06;;;14.48;92.77
14253;BME280;7210;51.502;10.722;2022-07-10T07:00:08;100352.84;;;14.61;91.55
14253;BME280;7210;51.502;10.722;2022-07-10T07:02:36;100341.47;;;14.77;90.82
14253;BME280;7210;51.502;10.722;2022-07-10T07:05:04;100337.47;;;14.91;90.13
14253;BME280;7210;51.502;10.722;2022-07-10T07:07:32;100332.53;;;15.11;89.32
14253;BME280;7210;51.502;10.722;2022-07-10T07:09:59;100324.72;;;15.32;87.87
14253;BME280;7210;51.502;10.722;2022-07-10T07:12:26;100311.31;;;15.43;87.09
14253;BME280;7210;51.502;10.722;2022-07-10T07:14:55;100317.31;;;15.50;85.12
14253;BME280;7210;51.502;10.722;2022-07-10T07:17:22;100299.94;;;15.48;83.70
14253;BME280;7210;51.502;10.722;2022-07-10T07:19:52;100284.97;;;15.30;83.15
14253;BME280;7210;51.502;10.722;2022-07-10T07:22:37;100294.38;;;15.21;83.04
14253;BME280;7210;51.502;10.722;2022-07-10T07:25:30;100288.59;;;14.97;83.19
14253;BME280;7210;51.502;10.722;2022-07-10T07:27:58;100289.75;;;15.01;83.30
14253;BME280;7210;51.502;10.722;2022-07-10T07:30:26;100288.47;;;15.03;82.77
14253;BME280;7210;51.502;10.722;2022-07-10T07:32:53;100298.81;;;15.16;82.67
14253;BME280;7210;51.502;10.722;2022-07-10T07:35:27;100288.22;;;15.32;82.10
14253;BME280;7210;51.502;10.722;2022-07-10T07:37:54;100291.72;;;15.49;81.55
14253;BME280;7210;51.502;10.722;2022-07-10T07:40:22;100305.44;;;15.74;80.75
14253;BME280;7210;51.502;10.722;2022-07-10T07:42:51;100296.50;;;15.97;79.39
14253;BME280;7210;51.502;10.722;2022-07-10T07:45:19;100295.28;;;16.26;78.20
14253;BME280;7210;51.502;10.722;2022-07-10T07:47:50;100290.13;;;16.19;77.16
14253;BME280;7210;51.502;10.722;2022-07-10T07:50:20;100277.72;;;16.08;76.91
14253;BME280;7210;51.502;10.722;2022-07-10T07:52:48;100279.16;;;15.99;76.23
14253;BME280;7210;51.502;10.722;2022-07-10T07:55:17;100273.81;;;15.99;75.99
14253;BME280;7210;51.502;10.722;2022-07-10T07:57:46;100284.03;;;16.02;75.73
14253;BME280;7210;51.502;10.722;2022-07-10T08:00:15;100286.28;;;16.10;75.55
14253;BME280;7210;51.502;10.722;2022-07-10T08:02:43;100270.50;;;16.09;74.66
14253;BME280;7210;51.502;10.722;2022-07-10T08:05:12;100281.56;;;16.17;74.25
14253;BME280;7210;51.502;10.722;2022-07-10T08:07:42;100269.09;;;16.23;73.88
14253;BME280;7210;51.502;10.722;2022-07-10T08:10:13;100276.53;;;16.37;73.83
14253;BME280;7210;51.502;10.722;2022-07-10T08:12:41;100283.50;;;16.60;72.96
14253;BME280;7210;51.502;10.722;2022-07-10T08:15:11;100259.78;;;16.63;72.47
14253;BME280;7210;51.502;10.722;2022-07-10T08:17:39;100263.31;;;16.69;71.47
14253;BME280;7210;51.502;10.722;2022-07-10T08:20:12;100260.56;;;16.64;70.58
14253;BME280;7210;51.502;10.722;2022-07-10T08:22:40;100255.94;;;16.81;70.50
14253;BME280;7210;51.502;10.722;2022-07-10T08:25:08;100258.00;;;16.95;69.96
14253;BME280;7210;51.502;10.722;2022-07-10T08:27:36;100260.72;;;17.00;69.24
14253;BME280;7210;51.502;10.722;2022-07-10T08:30:06;100257.19;;;16.95;69.12
14253;BME280;7210;51.502;10.722;2022-07-10T08:32:34;100255.88;;;16.97;69.00
14253;BME280;7210;51.502;10.722;2022-07-10T08:35:03;100252.56;;;16.85;68.44
14253;BME280;7210;51.502;10.722;2022-07-10T08:37:37;100253.44;;;16.96;67.93
14253;BME280;7210;51.502;10.722;2022-07-10T08:40:06;100212.91;;;16.77;67.05
14253;BME280;7210;51.502;10.722;2022-07-10T08:42:35;100255.09;;;16.97;67.21
14253;BME280;7210;51.502;10.722;2022-07-10T08:45:04;100246.72;;;17.15;66.18
14253;BME280;7210;51.502;10.722;2022-07-10T08:47:34;100250.75;;;17.17;65.31
14253;BME280;7210;51.502;10.722;2022-07-10T08:50:03;100261.06;;;17.35;65.45
14253;BME280;7210;51.502;10.722;2022-07-10T08:52:51;100252.22;;;17.35;65.22
14253;BME280;7210;51.502;10.722;2022-07-10T08:55:24;100247.19;;;17.38;64.45
14253;BME280;7210;51.502;10.722;2022-07-10T08:57:54;100244.47;;;17.65;64.07
14253;BME280;7210;51.502;10.722;2022-07-10T09:00:23;100259.09;;;17.89;63.53
14253;BME280;7210;51.502;10.722;2022-07-10T09:02:50;100232.63;;;17.92;62.25
14253;BME280;7210;51.502;10.722;2022-07-10T09:05:17;100239.28;;;17.85;61.68
14253;BME280;7210;51.502;10.722;2022-07-10T09:07:46;100237.28;;;17.70;61.96
14253;BME280;7210;51.502;10.722;2022-07-10T09:10:14;100240.34;;;17.84;61.78
14253;BME280;7210;51.502;10.722;2022-07-10T09:12:53;100237.00;;;18.03;60.62
14253;BME280;7210;51.502;10.722;2022-07-10T09:15:23;100237.34;;;18.22;59.73
14253;BME280;7210;51.502;10.722;2022-07-10T09:17:53;100242.31;;;18.45;60.60
14253;BME280;7210;51.502;10.722;2022-07-10T09:20:32;100240.00;;;18.78;59.58
14253;BME280;7210;51.502;10.722;2022-07-10T09:23:17;100235.72;;;18.72;58.88
14253;BME280;7210;51.502;10.722;2022-07-10T09:25:45;100236.16;;;18.44;58.84
14253;BME280;7210;51.502;10.722;2022-07-10T09:28:16;100242.59;;;18.48;59.94
14253;BME280;7210;51.502;10.722;2022-07-10T09:30:45;100251.78;;;18.67;59.21
14253;BME280;7210;51.502;10.722;2022-07-10T09:33:22;100243.97;;;18.56;57.56
14253;BME280;7210;51.502;10.722;2022-07-10T09:36:04;100219.75;;;18.31;58.68
14253;BME280;7210;51.502;10.722;2022-07-10T09:38:54;100228.53;;;18.26;60.48
14253;BME280;7210;51.502;10.722;2022-07-10T09:41:28;100229.34;;;18.27;59.36
14253;BME280;7210;51.502;10.722;2022-07-10T09:44:02;100220.22;;;18.28;59.32
14253;BME280;7210;51.502;10.722;2022-07-10T09:46:38;100225.16;;;18.41;58.65
14253;BME280;7210;51.502;10.722;2022-07-10T09:49:09;100214.78;;;18.69;57.39
14253;BME280;7210;51.502;10.722;2022-07-10T09:51:38;100211.91;;;18.86;55.40
14253;BME280;7210;51.502;10.722;2022-07-10T09:54:09;100229.94;;;19.20;55.94
14253;BME280;7210;51.502;10.722;2022-07-10T09:56:42;100244.97;;;19.46;56.49
14253;BME280;7210;51.502;10.722;2022-07-10T09:59:12;100237.97;;;19.25;56.32
14253;BME280;7210;51.502;10.722;2022-07-10T10:01:45;100229.84;;;18.80;55.84
14253;BME280;7210;51.502;10.722;2022-07-10T10:04:14;100233.56;;;18.64;56.63
14253;BME280;7210;51.502;10.722;2022-07-10T10:06:43;100243.13;;;18.55;57.69
14253;BME280;7210;51.502;10.722;2022-07-10T10:09:26;100245.59;;;18.67;57.63
14253;BME280;7210;51.502;10.722;2022-07-10T10:11:57;100239.47;;;18.86;56.80
14253;BME280;7210;51.502;10.722;2022-07-10T10:14:29;100229.25;;;18.63;55.97
14253;BME280;7210;51.502;10.722;2022-07-10T10:16:58;100230.88;;;18.64;57.59
14253;BME280;7210;51.502;10.722;2022-07-10T10:19:30;100223.63;;;18.60;57.00
14253;BME280;7210;51.502;10.722;2022-07-10T10:22:18;100226.25;;;18.50;57.46
14253;BME280;7210;51.502;10.722;2022-07-10T10:24:48;100225.56;;;18.84;57.92
14253;BME280;7210;51.502;10.722;2022-07-10T10:27:16;100238.25;;;19.48;57.02
14253;BME280;7210;51.502;10.722;2022-07-10T10:29:47;100239.00;;;19.99;55.65
14253;BME280;7210;51.502;10.722;2022-07-10T10:32:15;100222.94;;;19.89;52.92
14253;BME280;7210;51.502;10.722;2022-07-10T10:34:44;100222.41;;;19.82;53.13
14253;BME280;7210;51.502;10.722;2022-07-10T10:37:35;100216.78;;;19.73;52.61
14253;BME280;7210;51.502;10.722;2022-07-10T10:40:06;100229.34;;;20.03;52.90
14253;BME280;7210;51.502;10.722;2022-07-10T10:42:37;100216.47;;;20.05;50.42
14253;BME280;7210;51.502;10.722;2022-07-10T10:45:25;100207.38;;;19.81;50.66
14253;BME280;7210;51.502;10.722;2022-07-10T10:48:06;100215.47;;;19.51;50.99
14253;BME280;7210;51.502;10.722;2022-07-10T10:50:40;100214.91;;;19.69;50.49
14253;BME280;7210;51.502;10.722;2022-07-10T10:53:19;100214.38;;;19.72;49.59
14253;BME280;7210;51.502;10.722;2022-07-10T10:56:23;100219.19;;;19.75;50.30
14253;BME280;7210;51.502;10.722;2022-07-10T10:58:51;100226.72;;;19.58;51.47
14253;BME280;7210;51.502;10.722;2022-07-10T11:01:27;100228.03;;;19.85;52.75
14253;BME280;7210;51.502;10.722;2022-07-10T11:04:16;100222.13;;;19.78;52.37
14253;BME280;7210;51.502;10.722;2022-07-10T11:06:47;100212.75;;;19.81;52.45
14253;BME280;7210;51.502;10.722;2022-07-10T11:09:26;100201.44;;;19.79;52.98
14253;BME280;7210;51.502;10.722;2022-07-10T11:12:07;100219.16;;;20.05;52.84
14253;BME280;7210;51.502;10.722;2022-07-10T11:14:37;100231.41;;;20.31;52.19
14253;BME280;7210;51.502;10.722;2022-07-10T11:17:07;100209.34;;;20.39;49.71
14253;BME280;7210;51.502;10.722;2022-07-10T11:19:39;100217.16;;;20.45;48.56
14253;BME280;7210;51.502;10.722;2022-07-10T11:22:47;100221.25;;;20.18;49.50
14253;BME280;7210;51.502;10.722;2022-07-10T11:25:36;100224.50;;;20.00;50.12
14253;BME280;7210;51.502;10.722;2022-07-10T11:28:10;100217.47;;;20.24;50.35
14253;BME280;7210;51.502;10.722;2022-07-10T11:30:50;100220.88;;;20.44;50.64
14253;BME280;7210;51.502;10.722;2022-07-10T11:33:18;100215.88;;;20.28;50.61
14253;BME280;7210;51.502;10.722;2022-07-10T11:35:49;100209.66;;;20.32;50.27
14253;BME280;7210;51.502;10.722;2022-07-10T11:38:21;100209.41;;;20.82;50.54
14253;BME280;7210;51.502;10.722;2022-07-10T11:40:49;100212.16;;;21.16;47.55
14253;BME280;7210;51.502;10.722;2022-07-10T11:43:20;100219.09;;;21.27;48.16
14253;BME280;7210;51.502;10.722;2022-07-10T11:45:50;100218.72;;;21.00;47.90
14253;BME280;7210;51.502;10.722;2022-07-10T11:48:19;100219.84;;;20.94;48.93
14253;BME280;7210;51.502;10.722;2022-07-10T11:50:47;100220.63;;;20.41;49.80
14253;BME280;7210;51.502;10.722;2022-07-10T11:53:22;100212.63;;;20.26;50.56
14253;BME280;7210;51.502;10.722;2022-07-10T11:55:50;100224.91;;;20.47;50.50
14253;BME280;7210;51.502;10.722;2022-07-10T11:58:20;100217.22;;;20.79;51.57
14253;BME280;7210;51.502;10.722;2022-07-10T12:00:59;100227.16;;;20.88;50.57
14253;BME280;7210;51.502;10.722;2022-07-10T12:03:28;100235.84;;;21.14;51.82
14253;BME280;7210;51.502;10.722;2022-07-10T12:06:01;100233.91;;;21.24;51.08
14253;BME280;7210;51.502;10.722;2022-07-10T12:08:29;100227.72;;;21.24;50.75
14253;BME280;7210;51.502;10.722;2022-07-10T12:10:56;100227.44;;;21.25;51.47
14253;BME280;7210;51.502;10.722;2022-07-10T12:13:25;100225.09;;;21.47;50.22
14253;BME280;7210;51.502;10.722;2022-07-10T12:15:53;100237.66;;;21.90;51.17
14253;BME280;7210;51.502;10.722;2022-07-10T12:18:21;100224.94;;;21.67;50.09
14253;BME280;7210;51.502;10.722;2022-07-10T12:20:51;100236.56;;;21.91;49.47
14253;BME280;7210;51.502;10.722;2022-07-10T12:23:20;100230.69;;;21.84;48.77
14253;BME280;7210;51.502;10.722;2022-07-10T12:25:49;100248.34;;;22.24;48.21
14253;BME280;7210;51.502;10.722;2022-07-10T12:28:17;100223.28;;;22.00;48.41
14253;BME280;7210;51.502;10.722;2022-07-10T12:30:48;100235.53;;;22.11;48.38
14253;BME280;7210;51.502;10.722;2022-07-10T12:33:19;100232.78;;;21.92;48.00
14253;BME280;7210;51.502;10.722;2022-07-10T12:35:53;100239.56;;;21.90;47.59
14253;BME280;7210;51.502;10.722;2022-07-10T12:38:23;100239.84;;;21.55;47.79
14253;BME280;7210;51.502;10.722;2022-07-10T12:41:04;100226.53;;;21.01;48.44
14253;BME280;7210;51.502;10.722;2022-07-10T12:43:32;100217.16;;;20.45;48.84
14253;BME280;7210;51.502;10.722;2022-07-10T12:46:14;100226.00;;;20.46;49.47
14253;BME280;7210;51.502;10.722;2022-07-10T12:48:43;100224.13;;;20.95;49.42
14253;BME280;7210;51.502;10.722;2022-07-10T12:51:22;100242.44;;;21.65;48.60
14253;BME280;7210;51.502;10.722;2022-07-10T12:53:51;100234.78;;;21.82;47.10
14253;BME280;7210;51.502;10.722;2022-07-10T12:56:33;100222.22;;;21.72;46.51
14253;BME280;7210;51.502;10.722;2022-07-10T12:59:12;100236.56;;;21.91;46.89
14253;BME280;7210;51.502;10.722;2022-07-10T13:01:43;100227.19;;;21.55;47.33
14253;BME280;7210;51.502;10.722;2022-07-10T13:04:11;100232.94;;;21.44;47.85
14253;BME280;7210;51.502;10.722;2022-07-10T13:06:39;100233.53;;;21.36;46.60